createdAt,value
2023-03-23T00:00:02.517Z,73
2023-03-23T00:01:01.714Z,73.1
2023-03-23T00:02:02.874Z,72.9
2023-03-23T00:03:02.011Z,72.9
2023-03-23T00:04:02.273Z,72.9
2023-03-23T00:05:01.796Z,72.7
2023-03-23T00:06:02.273Z,73.1
2023-03-23T00:07:02.506Z,72.5
2023-03-23T00:09:02.688Z,72.7
2023-03-23T00:10:03.083Z,72.5
2023-03-23T00:11:03.703Z,72.5
2023-03-23T00:12:02.230Z,72.4
2023-03-23T00:13:04.400Z,72.5
2023-03-23T00:14:01.719Z,72.3
2023-03-23T00:15:02.297Z,72.5
2023-03-23T00:16:04.286Z,72.3
2023-03-23T00:17:02.615Z,72.5
2023-03-23T00:18:02.299Z,72.4
2023-03-23T00:19:01.829Z,72.5
2023-03-23T00:20:02.288Z,72.4
2023-03-23T00:21:01.898Z,72.4
2023-03-23T00:22:03.294Z,72.6
2023-03-23T00:23:02.748Z,72.8
2023-03-23T00:24:01.503Z,72.8
2023-03-23T00:25:02.010Z,73.1
2023-03-23T00:26:01.489Z,73.2
2023-03-23T00:27:02.908Z,73.1
2023-03-23T00:28:01.645Z,73.3
2023-03-23T00:29:02.232Z,73.2
2023-03-23T00:30:01.698Z,73.2
2023-03-23T00:31:03.179Z,73.2
2023-03-23T00:32:02.673Z,73.2
2023-03-23T00:33:01.416Z,73.2
2023-03-23T00:34:03.594Z,73.3
2023-03-23T00:35:01.427Z,73.1
2023-03-23T00:36:01.926Z,73.1
2023-03-23T00:37:03.751Z,73.2
2023-03-23T00:38:02.258Z,73
2023-03-23T00:39:01.571Z,73.1
2023-03-23T00:40:02.104Z,73.2
2023-03-23T00:41:01.572Z,73.3
2023-03-23T00:42:02.847Z,73.3
2023-03-23T00:43:01.660Z,72.9
2023-03-23T00:44:02.215Z,73.4
2023-03-23T00:45:01.688Z,72.9
2023-03-23T00:46:02.246Z,72.9
2023-03-23T00:47:02.440Z,72.4
2023-03-23T00:48:02.251Z,72.6
2023-03-23T00:49:01.837Z,72.7
2023-03-23T00:50:02.316Z,72.6
2023-03-23T00:51:03.517Z,72.6
2023-03-23T00:53:02.478Z,72.2
2023-03-23T00:54:01.486Z,72.1
2023-03-23T00:55:01.998Z,72.3
2023-03-23T00:56:01.488Z,72
2023-03-23T00:57:04.475Z,72.4
2023-03-23T00:58:02.024Z,71.8
2023-03-23T00:59:01.528Z,71.6
2023-03-23T01:00:05.632Z,71.5
2023-03-23T01:01:01.494Z,71.9
2023-03-23T01:02:04.842Z,71.7
2023-03-23T01:03:03.725Z,71.7
2023-03-23T01:04:03.055Z,71.8
2023-03-23T01:05:03.005Z,71.5
2023-03-23T01:06:01.653Z,71.3
2023-03-23T01:07:04.698Z,71.4
2023-03-23T01:08:02.191Z,71.2
2023-03-23T01:09:03.437Z,71.4
2023-03-23T01:10:03.787Z,71.7
2023-03-23T01:11:01.688Z,71.6
2023-03-23T01:12:03.139Z,71.4
2023-03-23T01:13:01.727Z,71.7
2023-03-23T01:14:02.187Z,71.1
2023-03-23T01:15:01.662Z,71.3
2023-03-23T01:16:03.088Z,71.6
2023-03-23T01:17:04.135Z,71
2023-03-23T01:18:03.442Z,71.2
2023-03-23T01:19:02.205Z,71
2023-03-23T01:20:01.658Z,71
2023-03-23T01:21:02.100Z,71.4
2023-03-23T01:22:03.925Z,71
2023-03-23T01:23:01.398Z,71.2
2023-03-23T01:24:01.875Z,70.5
2023-03-23T01:25:03.012Z,70.9
2023-03-23T01:26:03.458Z,71.4
2023-03-23T01:27:02.189Z,70.6
2023-03-23T01:28:02.213Z,70.1
2023-03-23T01:29:01.489Z,70.5
2023-03-23T01:30:01.957Z,70.1
2023-03-23T01:31:01.401Z,70.5
2023-03-23T01:32:04.370Z,70.2
2023-03-23T01:33:03.533Z,69.8
2023-03-23T01:34:02.281Z,69.9
2023-03-23T01:35:01.794Z,69.6
2023-03-23T01:36:02.319Z,70.6
2023-03-23T01:37:02.657Z,69.7
2023-03-23T01:38:02.894Z,70
2023-03-23T01:39:01.808Z,70
2023-03-23T01:40:02.287Z,70
2023-03-23T01:41:01.777Z,70.4
2023-03-23T01:42:03.915Z,70.3
2023-03-23T01:43:02.999Z,70.4
2023-03-23T01:44:01.800Z,70.7
2023-03-23T01:45:02.310Z,70.2
2023-03-23T01:46:01.810Z,70.6
2023-03-23T01:47:02.066Z,70.7
2023-03-23T01:48:01.981Z,70.3
2023-03-23T01:49:03.197Z,70.1
2023-03-23T01:50:02.011Z,69.5
2023-03-23T01:51:01.483Z,70
2023-03-23T01:52:04.689Z,70.2
2023-03-23T01:53:01.961Z,69.8
2023-03-23T01:54:01.429Z,69.2
2023-03-23T01:55:01.922Z,69.9
2023-03-23T01:56:03.090Z,69.9
2023-03-23T01:57:02.482Z,69.6
2023-03-23T01:58:01.616Z,70.2
2023-03-23T01:59:01.963Z,70.2
2023-03-23T02:00:03.182Z,69.9
2023-03-23T02:01:01.999Z,69.8
2023-03-23T02:02:03.722Z,69.9
2023-03-23T02:03:02.124Z,70.4
2023-03-23T02:04:01.585Z,70
2023-03-23T02:05:02.157Z,70.3
2023-03-23T02:06:03.219Z,70
2023-03-23T02:07:04.414Z,70.6
2023-03-23T02:08:01.996Z,70.5
2023-03-23T02:09:01.391Z,70.7
2023-03-23T02:10:01.877Z,70.9
2023-03-23T02:11:01.400Z,70.8
2023-03-23T02:12:02.654Z,71.5
2023-03-23T02:13:01.375Z,71.3
2023-03-23T02:14:01.911Z,70.9
2023-03-23T02:15:03.534Z,71.8
2023-03-23T02:16:01.409Z,71.9
2023-03-23T02:17:04.322Z,71.9
2023-03-23T02:18:02.066Z,72.3
2023-03-23T02:19:02.168Z,72.4
2023-03-23T02:20:03.319Z,72.7
2023-03-23T02:21:02.201Z,72.6
2023-03-23T02:22:02.447Z,72.4
2023-03-23T02:23:02.092Z,72.3
2023-03-23T02:24:03.374Z,72.5
2023-03-23T02:25:02.091Z,72.2
2023-03-23T02:26:03.236Z,72.3
2023-03-23T02:27:02.603Z,72.3
2023-03-23T02:28:01.745Z,72
2023-03-23T02:29:03.766Z,72.3
2023-03-23T02:30:01.576Z,72.2
2023-03-23T02:31:02.092Z,71.9
2023-03-23T02:32:02.346Z,72.1
2023-03-23T02:33:03.807Z,72.4
2023-03-23T02:34:01.601Z,72.2
2023-03-23T02:35:03.807Z,71.7
2023-03-23T02:36:01.673Z,71.9
2023-03-23T02:37:02.741Z,72
2023-03-23T02:38:02.601Z,72.1
2023-03-23T02:39:01.311Z,72.3
2023-03-23T02:40:01.858Z,72.5
2023-03-23T02:41:02.289Z,72.1
2023-03-23T02:42:02.636Z,72.4
2023-03-23T02:43:01.387Z,72.3
2023-03-23T02:44:03.592Z,72.2
2023-03-23T02:45:03.072Z,72.3
2023-03-23T02:46:01.889Z,72.4
2023-03-23T02:47:02.433Z,72.2
2023-03-23T02:48:02.808Z,72.2
2023-03-23T02:49:01.576Z,72
2023-03-23T02:50:01.998Z,72.3
2023-03-23T02:51:03.157Z,72.1
2023-03-23T02:52:03.281Z,72.2
2023-03-23T02:53:01.952Z,72.6
2023-03-23T02:54:03.817Z,72.1
2023-03-23T02:55:01.643Z,72.6
2023-03-23T02:56:03.788Z,72.7
2023-03-23T02:57:02.188Z,72.7
2023-03-23T02:58:04.915Z,72.9
2023-03-23T02:59:02.344Z,73
2023-03-23T03:00:01.772Z,73.1
2023-03-23T03:01:03.889Z,73.2
2023-03-23T03:02:03.751Z,73.5
2023-03-23T03:03:02.684Z,73.2
2023-03-23T03:04:02.615Z,73.3
2023-03-23T03:05:01.634Z,73
2023-03-23T03:06:01.873Z,72.8
2023-03-23T03:07:02.119Z,72.8
2023-03-23T03:08:02.660Z,73
2023-03-23T03:09:01.504Z,73.1
2023-03-23T03:10:03.660Z,72.8
2023-03-23T03:11:03.357Z,73.2
2023-03-23T03:12:02.831Z,73.1
2023-03-23T03:13:03.431Z,73.4
2023-03-23T03:14:03.894Z,73.5
2023-03-23T03:15:03.498Z,73.5
2023-03-23T03:16:03.965Z,73.5
2023-03-23T03:17:04.093Z,73.6
2023-03-23T03:18:01.763Z,73.8
2023-03-23T03:19:02.075Z,73.8
2023-03-23T03:20:01.572Z,73.8
2023-03-23T03:21:03.808Z,74
2023-03-23T03:22:02.712Z,73.9
2023-03-23T03:23:03.164Z,73.9
2023-03-23T03:24:01.911Z,73.9
2023-03-23T03:25:01.421Z,74
2023-03-23T03:26:01.877Z,74.2
2023-03-23T03:27:02.019Z,74.2
2023-03-23T03:28:03.886Z,74.2
2023-03-23T03:29:01.581Z,74.2
2023-03-23T03:30:02.114Z,74.3
2023-03-23T03:31:01.493Z,74.3
2023-03-23T03:32:02.861Z,74.4
2023-03-23T03:33:01.654Z,74.3
2023-03-23T03:34:02.132Z,74.2
2023-03-23T03:35:01.570Z,74.1
2023-03-23T03:36:02.070Z,74.2
2023-03-23T03:37:04.140Z,74.3
2023-03-23T03:38:02.020Z,74.1
2023-03-23T03:39:02.061Z,74.4
2023-03-23T03:40:01.570Z,74.3
2023-03-23T03:41:02.068Z,74.2
2023-03-23T03:42:02.709Z,74.2
2023-03-23T03:43:02.407Z,74.4
2023-03-23T03:44:01.735Z,74.3
2023-03-23T03:45:02.221Z,74.3
2023-03-23T03:46:01.677Z,74.2
2023-03-23T03:47:02.841Z,74
2023-03-23T03:48:03.787Z,73.9
2023-03-23T03:49:02.282Z,74.1
2023-03-23T03:50:01.722Z,74.2
2023-03-23T03:51:02.281Z,74.3
2023-03-23T03:52:02.741Z,74.3
2023-03-23T03:53:02.050Z,74.1
2023-03-23T03:54:02.996Z,73.9
2023-03-23T03:55:01.820Z,74
2023-03-23T03:56:02.273Z,73.8
2023-03-23T03:57:02.437Z,73.8
2023-03-23T03:58:01.669Z,73.9
2023-03-23T03:59:21.438Z,74
2023-03-23T04:00:03.150Z,74
2023-03-23T04:01:01.968Z,73.9
2023-03-23T04:02:02.446Z,74
2023-03-23T04:03:04.269Z,74.2
2023-03-23T04:04:01.767Z,74
2023-03-23T04:05:02.218Z,74
2023-03-23T04:06:01.726Z,74
2023-03-23T04:07:04.496Z,73.7
2023-03-23T04:08:09.624Z,73.9
2023-03-23T04:09:07.713Z,73.8
2023-03-23T04:10:03.806Z,73.8
2023-03-23T04:11:01.581Z,73.9
2023-03-23T04:12:02.972Z,73.8
2023-03-23T04:13:03.655Z,74.1
2023-03-23T04:14:02.134Z,74
2023-03-23T04:15:06.304Z,74
2023-03-23T04:16:07.178Z,74
2023-03-23T04:17:02.464Z,73.8
2023-03-23T04:18:02.548Z,73.6
2023-03-23T04:19:03.419Z,73.3
2023-03-23T04:20:02.203Z,73.2
2023-03-23T04:21:01.736Z,73.2
2023-03-23T04:22:03.126Z,72.8
2023-03-23T04:23:03.873Z,73
2023-03-23T04:24:01.482Z,73.1
2023-03-23T04:25:02.115Z,73.1
2023-03-23T04:26:01.474Z,73.3
2023-03-23T04:27:02.930Z,73.4
2023-03-23T04:28:01.966Z,73.4
2023-03-23T04:29:03.972Z,73.2
2023-03-23T04:30:01.841Z,73.3
2023-03-23T04:31:02.322Z,73.7
2023-03-23T04:32:02.657Z,73.6
2023-03-23T04:33:03.494Z,73.6
2023-03-23T04:34:02.049Z,73.2
2023-03-23T04:35:12.877Z,73.2
2023-03-23T04:36:02.249Z,73.4
2023-03-23T04:37:02.402Z,73.5
2023-03-23T04:38:01.824Z,73.5
2023-03-23T04:39:01.945Z,73.6
2023-03-23T04:40:01.325Z,73.3
2023-03-23T04:41:01.894Z,73.5
2023-03-23T04:42:02.180Z,73.7
2023-03-23T04:43:04.025Z,73.7
2023-03-23T04:44:01.639Z,73.7
2023-03-23T04:45:02.122Z,73.2
2023-03-23T04:46:01.650Z,73.1
2023-03-23T04:47:01.818Z,73
2023-03-23T04:48:01.904Z,73.1
2023-03-23T04:49:01.378Z,73
2023-03-23T04:50:02.006Z,73
2023-03-23T04:51:01.472Z,72.5
2023-03-23T04:52:03.180Z,72.7
2023-03-23T04:53:02.250Z,72.5
2023-03-23T04:54:02.230Z,72.6
2023-03-23T04:55:01.648Z,72.7
2023-03-23T04:56:03.790Z,72.4
2023-03-23T04:57:02.598Z,72.4
2023-03-23T04:58:01.659Z,71.4
2023-03-23T04:59:02.004Z,72.1
2023-03-23T05:00:01.399Z,72
2023-03-23T05:01:01.958Z,71.8
2023-03-23T07:52:10.383Z,73.2
2023-03-23T07:53:02.550Z,74.2
2023-03-23T07:54:01.537Z,74.1
2023-03-23T07:55:03.726Z,74.5
2023-03-23T07:56:01.645Z,74.2
2023-03-23T07:57:03.813Z,74.4
2023-03-23T07:58:01.465Z,74.7
2023-03-23T07:59:03.707Z,74.8
2023-03-23T08:00:01.462Z,74.2
2023-03-23T08:01:01.989Z,74.4
2023-03-23T08:02:02.270Z,74.7
2023-03-23T08:03:02.585Z,74.5
2023-03-23T08:04:03.574Z,74.7
2023-03-23T08:06:01.917Z,74.7
2023-03-23T08:07:02.257Z,75.3
2023-03-23T08:08:02.199Z,74.9
2023-03-23T08:09:01.598Z,74.8
2023-03-23T08:10:02.004Z,74.6
2023-03-23T08:11:01.522Z,74.4
2023-03-23T08:12:02.939Z,74.3
2023-03-23T08:13:01.966Z,74.6
2023-03-23T08:15:03.613Z,75
2023-03-23T08:16:01.409Z,74.6
2023-03-23T08:17:03.340Z,74.9
2023-03-23T08:18:03.736Z,74.8
2023-03-23T08:19:08.296Z,74.7
2023-03-23T08:20:01.959Z,73.9
2023-03-23T08:21:01.517Z,74.3
2023-03-23T08:22:02.178Z,74.4
2023-03-23T08:23:02.351Z,74.7
2023-03-23T08:24:01.584Z,74.9
2023-03-23T08:25:02.068Z,74.7
2023-03-23T08:26:01.598Z,74.5
2023-03-23T08:27:02.970Z,74.2
2023-03-23T08:28:03.535Z,74.8
2023-03-23T08:29:02.533Z,73.8
2023-03-23T08:30:01.913Z,74.1
2023-03-23T08:31:02.287Z,74.8
2023-03-23T08:32:02.852Z,74
2023-03-23T08:33:04.790Z,74.3
2023-03-23T08:34:03.844Z,74.9
2023-03-23T08:35:01.602Z,74.1
2023-03-23T08:36:02.222Z,74.7
2023-03-23T08:37:04.496Z,75.6
2023-03-23T08:38:01.860Z,74.9
2023-03-23T08:39:02.426Z,74.4
2023-03-23T08:40:02.010Z,74.9
2023-03-23T08:41:01.382Z,74.7
2023-03-23T08:42:02.949Z,74.2
2023-03-23T08:43:01.693Z,74.4
2023-03-23T08:44:03.890Z,73.7
2023-03-23T08:45:03.337Z,74.2
2023-03-23T08:46:02.219Z,73.8
2023-03-23T08:47:02.840Z,74.2
2023-03-23T08:48:01.651Z,73.7
2023-03-23T08:49:02.106Z,73.8
2023-03-23T08:50:01.688Z,73.5
2023-03-23T08:51:02.141Z,73.3
2023-03-23T08:52:02.499Z,73.7
2023-03-23T08:53:02.833Z,73.4
2023-03-23T08:54:01.812Z,73.9
2023-03-23T08:55:02.308Z,74
2023-03-23T08:56:01.803Z,73.6
2023-03-23T08:58:02.586Z,73.7
2023-03-23T08:59:01.346Z,73.8
2023-03-23T09:00:01.890Z,73.8
2023-03-23T09:01:01.320Z,73.2
2023-03-23T09:02:03.864Z,73.9
2023-03-23T09:03:02.423Z,73.8
2023-03-23T09:04:04.255Z,74
2023-03-23T09:05:01.501Z,73.7
2023-03-23T09:06:01.977Z,73.9
2023-03-23T09:07:02.287Z,73.9
2023-03-23T09:08:04.736Z,73.9
2023-03-23T09:09:01.725Z,73.4
2023-03-23T09:10:03.914Z,73.4
2023-03-23T09:11:01.712Z,73.8
2023-03-23T09:12:04.018Z,73.4
2023-03-23T09:13:01.431Z,73.6
2023-03-23T09:14:03.567Z,73.5
2023-03-23T09:15:01.403Z,73.6
2023-03-23T09:16:02.148Z,73.6
2023-03-23T09:17:03.906Z,73.5
2023-03-23T09:18:02.596Z,73.3
2023-03-23T09:19:01.720Z,73.3
2023-03-23T09:20:03.965Z,73.4
2023-03-23T09:21:03.522Z,73.1
2023-03-23T09:22:02.195Z,73
2023-03-23T09:23:02.029Z,73.6
2023-03-23T09:24:01.653Z,73.1
2023-03-23T09:25:02.102Z,73.6
2023-03-23T09:26:01.551Z,73.3
2023-03-23T09:27:04.397Z,73.4
2023-03-23T09:28:02.233Z,73.8
2023-03-23T09:29:03.153Z,73.2
2023-03-23T09:30:02.025Z,73.4
2023-03-23T09:31:01.488Z,73.7
2023-03-23T09:32:02.699Z,73.2
2023-03-23T09:33:03.250Z,73.5
2023-03-23T09:34:02.106Z,73.2
2023-03-23T09:35:01.585Z,73.5
2023-03-23T09:36:02.065Z,73.3
2023-03-23T09:37:02.437Z,73.5
2023-03-23T09:38:01.833Z,73.1
2023-03-23T09:39:02.232Z,73.6
2023-03-23T09:40:06.663Z,73.4
2023-03-23T09:41:01.844Z,73.2
2023-03-23T09:42:02.922Z,73.7
2023-03-23T09:43:01.876Z,73.5
2023-03-23T09:44:01.342Z,73.3
2023-03-23T09:45:03.648Z,73.4
2023-03-23T09:46:01.344Z,73.4
2023-03-23T09:47:02.582Z,73.4
2023-03-23T09:48:01.742Z,73.4
2023-03-23T09:49:01.986Z,73.4
2023-03-23T09:50:01.498Z,73.5
2023-03-23T09:51:01.967Z,73.5
2023-03-23T09:52:03.071Z,73.6
2023-03-23T09:53:02.721Z,73.4
2023-03-23T09:54:03.218Z,73.4
2023-03-23T09:55:02.332Z,73.9
2023-03-23T09:56:02.392Z,73.4
2023-03-23T09:57:02.609Z,73.6
2023-03-23T09:58:02.433Z,73.7
2023-03-23T09:59:01.822Z,73.3
2023-03-23T10:00:02.277Z,73.6
2023-03-23T10:01:03.517Z,73.7
2023-03-23T10:02:02.386Z,73.8
2023-03-23T10:03:03.755Z,74
2023-03-23T10:04:01.437Z,73.7
2023-03-23T10:05:03.650Z,73.6
2023-03-23T10:06:01.423Z,73.6
2023-03-23T10:07:02.900Z,73.6
2023-03-23T10:08:01.828Z,74
2023-03-23T10:09:03.798Z,73.6
2023-03-23T10:10:03.335Z,73.9
2023-03-23T10:11:03.874Z,73.8
2023-03-23T10:12:02.622Z,74
2023-03-23T10:13:01.386Z,73.7
2023-03-23T10:14:01.964Z,74
2023-03-23T10:15:03.084Z,73.8
2023-03-23T10:16:01.955Z,73.6
2023-03-23T10:17:03.946Z,73.8
2023-03-23T10:18:01.790Z,73.7
2023-03-23T10:19:01.956Z,73.9
2023-03-23T10:20:03.160Z,73.8
2023-03-23T10:21:02.036Z,73.9
2023-03-23T10:22:04.151Z,73.7
2023-03-23T10:23:03.237Z,73.7
2023-03-23T10:24:01.958Z,73.9
2023-03-23T10:25:01.497Z,73.8
2023-03-23T10:26:03.632Z,74
2023-03-23T10:27:02.386Z,74.6
2023-03-23T10:28:02.235Z,74.2
2023-03-23T10:29:01.732Z,74.1
2023-03-23T10:30:02.220Z,74.4
2023-03-23T10:31:01.732Z,74.4
2023-03-23T10:33:02.682Z,73.7
2023-03-23T10:34:01.593Z,73.9
2023-03-23T10:35:03.745Z,74.2
2023-03-23T10:36:01.600Z,73.9
2023-03-23T10:37:02.932Z,74.7
2023-03-23T10:38:02.388Z,74.8
2023-03-23T10:39:02.347Z,74.6
2023-03-23T10:40:01.814Z,74.4
2023-03-23T10:42:02.858Z,74.3
2023-03-23T10:43:01.679Z,74.5
2023-03-23T10:44:02.243Z,75
2023-03-23T10:45:01.894Z,74.8
2023-03-23T10:46:01.548Z,74.5
2023-03-23T10:47:02.834Z,74.7
2023-03-23T10:48:03.846Z,74.8
2023-03-23T10:49:01.398Z,74.5
2023-03-23T10:50:01.952Z,74.2
2023-03-23T10:51:02.118Z,74.3
2023-03-23T10:52:02.480Z,74.4
2023-03-23T10:53:02.230Z,74.9
2023-03-23T10:54:03.349Z,74.7
2023-03-23T10:55:02.188Z,75.2
2023-03-23T10:56:01.642Z,74.9
2023-03-23T10:57:04.006Z,74.6
2023-03-23T10:58:01.843Z,74.6
2023-03-23T10:59:03.917Z,74.7
2023-03-23T11:00:01.740Z,74.7
2023-03-23T11:01:02.300Z,75
2023-03-23T12:54:36.398Z,71
2023-03-23T12:55:02.327Z,71.1
2023-03-23T12:56:02.043Z,71.4
2023-03-23T12:57:02.496Z,71.6
2023-03-23T12:58:01.533Z,71.3
2023-03-23T12:59:00.975Z,71.5
2023-03-23T13:00:01.901Z,71.9
2023-03-23T13:01:01.410Z,71.5
2023-03-23T13:02:04.674Z,71.5
2023-03-23T13:03:03.542Z,71.8
2023-03-23T13:04:02.484Z,72.6
2023-03-23T13:05:03.939Z,72.4
2023-03-23T13:06:01.665Z,72.1
2023-03-23T13:07:02.225Z,72.9
2023-03-23T13:08:02.625Z,72.4
2023-03-23T13:09:01.490Z,73.3
2023-03-23T13:10:02.056Z,73.1
2023-03-23T13:11:01.575Z,73.2
2023-03-23T13:12:03.893Z,73.4
2023-03-23T13:13:03.569Z,73.1
2023-03-23T13:14:01.395Z,73
2023-03-23T13:15:03.564Z,73.1
2023-03-23T13:16:01.390Z,73
2023-03-23T13:17:02.784Z,72.7
2023-03-23T13:18:03.363Z,73.1
2023-03-23T13:19:03.812Z,73.6
2023-03-23T13:20:01.559Z,73
2023-03-23T13:21:02.063Z,73.5
2023-03-23T13:22:02.384Z,73.4
2023-03-23T13:23:02.479Z,73.7
2023-03-23T13:24:01.641Z,73.4
2023-03-23T13:25:02.252Z,73.1
2023-03-23T13:26:01.723Z,73
2023-03-23T13:27:02.281Z,73.2
2023-03-23T13:28:02.214Z,73.1
2023-03-23T13:29:01.673Z,73.1
2023-03-23T13:30:02.232Z,73
2023-03-23T13:31:01.754Z,72.9
2023-03-23T13:32:04.757Z,72.7
2023-03-23T13:33:02.126Z,73
2023-03-23T13:34:01.679Z,73
2023-03-23T13:35:02.250Z,72.9
2023-03-23T13:36:02.778Z,72.9
2023-03-23T13:37:02.445Z,73
2023-03-23T13:38:02.569Z,72.8
2023-03-23T13:39:01.819Z,72.8
2023-03-23T13:40:02.144Z,72.6
2023-03-23T13:41:01.830Z,72
2023-03-23T13:42:04.606Z,71.8
2023-03-23T13:43:02.123Z,72.2
2023-03-23T13:44:01.688Z,72.8
2023-03-23T13:45:02.215Z,72.4
2023-03-23T13:46:01.677Z,72.2
2023-03-23T13:47:04.810Z,72.7
2023-03-23T13:48:01.893Z,72.8
2023-03-23T13:49:05.299Z,73
2023-03-23T13:50:01.940Z,72.8
2023-03-23T13:51:01.724Z,72.8
2023-03-23T13:52:02.215Z,72.3
2023-03-23T13:53:02.186Z,72.3
2023-03-23T13:54:03.290Z,72.8
2023-03-23T13:55:02.103Z,72.8
2023-03-23T13:56:05.862Z,72.5
2023-03-23T13:57:04.651Z,73
2023-03-23T13:58:02.050Z,73.1
2023-03-23T13:59:01.589Z,73.6
2023-03-23T14:00:02.068Z,73
2023-03-23T14:01:01.567Z,73.6
2023-03-23T14:02:02.119Z,73
2023-03-23T14:03:03.813Z,73.3
2023-03-23T14:04:01.489Z,73.2
2023-03-23T14:05:01.969Z,73.5
2023-03-23T14:06:03.164Z,73.4
2023-03-23T14:07:02.847Z,73.3
2023-03-23T14:08:03.655Z,73.4
2023-03-23T14:10:02.591Z,73.7
2023-03-23T14:11:01.709Z,73.1
2023-03-23T14:13:02.664Z,73.5
2023-03-23T14:14:01.734Z,73.6
2023-03-23T14:15:02.213Z,73.6
2023-03-23T14:16:01.670Z,73.9
2023-03-23T14:18:02.895Z,73.7
2023-03-23T14:19:03.425Z,73.7
2023-03-23T14:20:02.214Z,73.9
2023-03-23T14:21:01.739Z,73.4
2023-03-23T14:22:04.573Z,73.5
2023-03-23T14:23:01.986Z,73.6
2023-03-23T14:24:03.261Z,73.9
2023-03-23T14:25:01.981Z,74.2
2023-03-23T14:26:03.158Z,73.8
2023-03-23T14:27:04.647Z,73.7
2023-03-23T14:28:02.417Z,73.6
2023-03-23T14:29:01.739Z,74.1
2023-03-23T14:30:03.897Z,74
2023-03-23T14:31:01.676Z,73.5
2023-03-23T14:32:03.650Z,74.1
2023-03-23T14:33:02.193Z,73.4
2023-03-23T14:34:01.585Z,73.6
2023-03-23T14:35:03.840Z,73.8
2023-03-23T14:36:03.238Z,73.9
2023-03-23T14:37:01.986Z,73.8
2023-03-23T14:38:03.741Z,73.3
2023-03-23T14:39:01.968Z,73.6
2023-03-23T14:40:03.205Z,73.6
2023-03-23T14:41:01.971Z,73.4
2023-03-23T14:42:02.292Z,73.6
2023-03-23T14:43:02.211Z,73.2
2023-03-23T14:44:01.737Z,73.5
2023-03-23T14:45:02.263Z,73.4
2023-03-23T14:46:01.793Z,73.2
2023-03-23T14:47:02.793Z,73.1
2023-03-23T14:48:04.264Z,72.9
2023-03-23T14:49:03.320Z,73.2
2023-03-23T14:50:01.907Z,73.2
2023-03-23T14:51:03.561Z,73.1
2023-03-23T14:52:02.890Z,73.8
2023-03-23T14:53:03.465Z,73.4
2023-03-23T14:54:02.188Z,73.4
2023-03-23T14:55:01.778Z,73.3
2023-03-23T14:56:02.270Z,73.4
2023-03-23T14:57:02.270Z,73.3
2023-03-23T14:58:02.778Z,73.4
2023-03-23T14:59:03.300Z,73.3
2023-03-23T15:00:03.716Z,73.3
2023-03-23T15:01:01.579Z,73.2
2023-03-23T15:02:02.677Z,73.4
2023-03-23T15:03:04.907Z,73.3
2023-03-23T15:04:04.252Z,73.3
2023-03-23T15:05:02.475Z,73.7
2023-03-23T15:06:01.459Z,73.4
2023-03-23T15:07:02.646Z,73.4
2023-03-23T15:08:01.369Z,73.6
2023-03-23T15:09:01.853Z,73.2
2023-03-23T15:10:01.300Z,73.4
2023-03-23T15:11:03.447Z,73.1
2023-03-23T15:12:02.058Z,72.9
2023-03-23T15:13:02.094Z,73
2023-03-23T15:14:01.395Z,73.2
2023-03-23T15:15:03.529Z,73.3
2023-03-23T15:16:01.373Z,73.1
2023-03-23T15:17:04.369Z,73.1
2023-03-23T15:18:01.889Z,73.4
2023-03-23T15:19:03.910Z,73
2023-03-23T15:20:01.723Z,73.2
2023-03-23T15:21:02.197Z,73.4
2023-03-23T15:22:02.431Z,73.3
2023-03-23T15:23:02.566Z,73.2
2023-03-23T15:24:03.388Z,73.4
2023-03-23T15:25:02.305Z,73.4
2023-03-23T15:26:03.407Z,73.7
2023-03-23T15:27:03.058Z,73.6
2023-03-23T15:28:01.918Z,73.6
2023-03-23T15:30:01.891Z,73.7
2023-03-23T15:31:01.301Z,73.8
2023-03-23T15:32:04.607Z,74
2023-03-23T15:33:02.454Z,74.4
2023-03-23T15:34:03.243Z,74.8
2023-03-23T15:35:12.394Z,75
2023-03-23T15:36:03.136Z,74.9
2023-03-23T15:37:04.482Z,75.2
2023-03-23T15:38:03.526Z,75.5
2023-03-23T15:39:01.509Z,75.5
2023-03-23T15:40:02.044Z,75.4
2023-03-23T15:41:01.506Z,75.2
2023-03-23T15:42:04.702Z,75.2
2023-03-23T15:43:02.268Z,75.6
2023-03-23T15:44:03.400Z,75.3
2023-03-23T15:45:02.186Z,75.6
2023-03-23T15:46:01.711Z,75.5
2023-03-23T15:47:07.165Z,75.5
2023-03-23T15:48:02.365Z,75.3
2023-03-23T15:49:03.265Z,75.5
2023-03-23T15:50:02.066Z,75.5
2023-03-23T15:51:01.555Z,75.6
2023-03-23T15:52:04.665Z,75.4
2023-03-23T15:53:02.300Z,75.5
2023-03-23T15:54:09.082Z,75.5
2023-03-23T15:55:02.142Z,75.3
2023-03-23T15:56:01.624Z,75.6
2023-03-23T15:57:02.292Z,75.5
2023-03-23T15:58:02.183Z,75.5
2023-03-23T15:59:01.526Z,75.7
2023-03-23T16:00:03.623Z,75.8
2023-03-23T16:01:03.170Z,75.8
2023-03-23T16:02:04.567Z,75.7
2023-03-23T16:03:02.229Z,75.7
2023-03-23T16:04:01.424Z,75.5
2023-03-23T16:05:01.943Z,75.5
2023-03-23T16:06:03.096Z,75.4
2023-03-23T16:07:03.257Z,75.7
2023-03-23T16:08:03.686Z,75.8
2023-03-23T16:09:01.723Z,75.8
2023-03-23T16:10:01.434Z,75.9
2023-03-23T16:11:01.877Z,76
2023-03-23T16:12:02.639Z,75.9
2023-03-23T16:13:01.899Z,75.9
2023-03-23T16:14:02.070Z,75.9
2023-03-23T16:15:01.551Z,75.9
2023-03-23T16:16:03.702Z,75.9
2023-03-23T16:17:02.444Z,76.1
2023-03-23T16:18:04.039Z,75.9
2023-03-23T16:19:01.670Z,75.9
2023-03-23T16:20:02.119Z,76
2023-03-23T16:21:01.548Z,75.9
2023-03-23T16:22:02.093Z,76
2023-03-23T16:23:02.821Z,75.7
2023-03-23T16:24:01.492Z,75.8
2023-03-23T16:25:01.952Z,76
2023-03-23T16:26:01.451Z,76
2023-03-23T16:27:04.676Z,76
2023-03-23T16:28:02.106Z,75.8
2023-03-23T16:29:12.701Z,76.1
2023-03-23T16:30:04.261Z,76.2
2023-03-23T16:31:01.647Z,75.9
2023-03-23T16:32:09.431Z,76.1
2023-03-23T16:33:02.680Z,76.1
2023-03-23T16:34:01.453Z,76.2
2023-03-23T16:35:01.949Z,76.4
2023-03-23T16:36:03.140Z,76.5
2023-03-23T16:37:05.050Z,76.6
2023-03-23T16:38:07.182Z,76.2
2023-03-23T16:39:01.537Z,76.2
2023-03-23T16:40:02.147Z,76.2
2023-03-23T16:41:01.519Z,76.2
2023-03-23T16:42:02.023Z,76.4
2023-03-23T16:43:08.852Z,76.4
2023-03-23T16:44:03.222Z,76.4
2023-03-23T16:45:03.670Z,76.7
2023-03-23T16:46:01.547Z,76.7
2023-03-23T16:47:01.831Z,76.7
2023-03-23T16:48:01.962Z,76.8
2023-03-23T16:49:01.294Z,77
2023-03-23T16:50:01.768Z,76.7
2023-03-23T16:51:01.259Z,77.3
2023-03-23T16:52:02.960Z,77.4
2023-03-23T16:53:02.523Z,77.4
2023-03-23T16:54:01.371Z,77.3
2023-03-23T16:55:01.864Z,77.4
2023-03-23T16:56:03.114Z,77.6
2023-03-23T16:57:02.849Z,77.5
2023-03-23T16:59:03.847Z,77.5
2023-03-23T17:00:03.366Z,77.3
2023-03-23T17:42:04.991Z,77.4
2023-03-23T17:43:02.179Z,77.2
2023-03-23T17:44:02.616Z,77.2
2023-03-23T17:45:02.163Z,77.3
2023-03-23T17:46:03.853Z,77.1
2023-03-23T17:47:02.407Z,77.2
2023-03-23T17:48:02.517Z,77.1
2023-03-23T17:49:03.578Z,77.1
2023-03-23T17:50:12.349Z,77.2
2023-03-23T17:51:01.867Z,77.3
2023-03-23T17:52:02.027Z,77.3
2023-03-23T17:53:02.262Z,77.2
2023-03-23T17:54:01.620Z,77.3
2023-03-23T17:55:02.086Z,77.4
2023-03-23T17:56:01.625Z,77.6
2023-03-23T17:57:02.964Z,77.6
2023-03-23T17:58:03.455Z,77.5
2023-03-23T17:59:02.218Z,77.6
2023-03-23T18:00:01.555Z,77.8
2023-03-23T18:01:02.216Z,77.6
2023-03-23T18:02:02.370Z,77.7
2023-03-23T18:03:03.175Z,77.8
2023-03-23T18:04:03.686Z,77.7
2023-03-23T18:05:01.490Z,77.4
2023-03-23T18:06:03.585Z,77.5
2023-03-23T18:07:02.267Z,77.4
2023-03-23T18:08:03.949Z,77.2
2023-03-23T18:09:01.630Z,76.9
2023-03-23T18:10:02.108Z,76.6
2023-03-23T18:11:01.622Z,76.5
2023-03-23T18:12:02.825Z,76.2
2023-03-23T18:13:02.428Z,76.4
2023-03-23T18:14:02.323Z,76
2023-03-23T18:15:01.730Z,75.8
2023-03-23T18:16:02.220Z,75.6
2023-03-23T18:17:02.765Z,75.6
2023-03-23T18:18:01.539Z,75.8
2023-03-23T18:19:01.942Z,75.5
2023-03-23T18:20:01.453Z,75.4
2023-03-23T18:21:03.645Z,75.2
2023-03-23T18:22:02.389Z,75
2023-03-23T18:23:02.575Z,75.2
2023-03-23T18:24:01.708Z,75.4
2023-03-23T18:25:02.178Z,75.2
2023-03-23T18:26:01.725Z,75
2023-03-23T18:27:03.911Z,74.9
2023-03-23T18:29:04.577Z,75
2023-03-23T18:30:03.144Z,75.2
2023-03-23T18:31:03.749Z,75
2023-03-23T18:32:02.625Z,75.5
2023-03-23T18:33:02.148Z,75.3
2023-03-23T18:34:02.110Z,75.4
2023-03-23T18:35:01.529Z,75.4
2023-03-23T18:36:02.117Z,75.3
2023-03-23T18:37:02.266Z,75.6
2023-03-23T18:38:02.558Z,75.6
2023-03-23T18:39:03.395Z,75.9
2023-03-23T18:40:02.182Z,75.8
2023-03-23T18:41:03.447Z,76
2023-03-23T18:42:03.719Z,76.1
2023-03-23T18:43:02.439Z,75.9
2023-03-23T18:44:01.770Z,75.9
2023-03-23T18:45:03.958Z,75.9
2023-03-23T18:46:01.809Z,75.8
2023-03-23T18:47:02.902Z,76
2023-03-23T18:48:02.783Z,75.9
2023-03-23T18:49:01.467Z,75.9
2023-03-23T18:50:02.061Z,76
2023-03-23T18:51:01.774Z,76.1
2023-03-23T18:52:02.844Z,76.1
2023-03-23T18:53:01.734Z,76.1
2023-03-23T18:54:02.369Z,76.2
2023-03-23T18:55:01.699Z,76.3
2023-03-23T18:56:02.279Z,76.4
2023-03-23T18:57:02.571Z,76.5
2023-03-23T18:58:01.829Z,76.7
2023-03-23T18:59:02.182Z,76.6
2023-03-23T19:00:01.500Z,76.6